Share

Bemidji, MN

RAWS BEMIDJI MN US (MBMJM5) Elev 1376 ft | 47.50 °N, 94.93 °W | Change Station

Current weather conditions updated 38 minutes ago

Clear
Clear
49 °F
Feels Like 47 °F
N
5
Wind Variable Wind from WSW
Gusts 9.0 mph
Sunrise 6:19 AM
Sunset 8:17 PM
Moon Waning Gibbous

Today is forecast to be Much Cooler than yesterday.

Pressure 29.85 in
Visibility 10.0 miles
Clouds Clear
Windchill 47 °F
Dew Point 32 °F
Humidity 51%
Rainfall 0.00 in
Snow Depth Not available.
UV 0 out of 16
Pollen 10.70 out of 12
Air Quality Not available.
Flu Activity Sporadic
METAR KVWU 211029Z AUTO 23012KT 10SM CLR 08/01 A2985 RMK AO2

More Conditions Fewer Conditions

Pressure 29.85 in
Visibility 10.0 miles
Clouds Clear
Windchill 47 °F
Dew Point 32 °F
Humidity 51%
Rainfall 0.00 in
Snow Depth Not available.
UV 0 out of 16
Pollen 10.70 out of 12
Air Quality Not available.
Flu Activity Sporadic
METAR KVWU 211029Z AUTO 23012KT 10SM CLR 08/01 A2985 RMK AO2

More Conditions Fewer Conditions

10-Day Weather Forecast

Almanac

Astronomy

Apr. 21, 2014 Rise Set
Actual Time 6:19 AM CDT 8:17 PM CDT
Civil Twilight 5:46 AM CDT 8:50 PM CDT
Nautical Twilight 5:06 AM CDT 9:31 PM CDT
Astronomical Twilight 4:21 AM CDT 10:16 PM CDT
Moon 1:54 AM CDT 11:42 AM CDT
Length of Visible Light 15h 04m
Length of Day
13h 57m
Tomorrow will be 3m 12s longer.
Waning Gibbous, 60% of the Moon is Illuminated
Today
Waning Gibbous
Apr 22
Last Quarter
Apr 29
New
May 6
First Quarter
May 14
Full

Today's Extremes

State Highs State Lows

Community

  • Snowy Robin
    Snowy Robin
  • Sun Pillar and Geese
    Sun Pillar and Geese
  • Showers on the Way
    Showers on the Way
  • Easter Morning Fog
    Easter Morning Fog
  • Easter Dance
    Easter Dance

WunderPhotos

Upload Photos

1,703,587 photos uploaded!

WunderBlogs® & News

Nearby

Snow Depth

Station Depth Elevation
No new snow has been reported.

Coastal Water Temperatures

Place Temperature
No Stations Reporting

Earthquake Activity

City Distance Mag. Time & Date
No recent earthquake activity has been reported nearby.
Minimum magnitude displayed is 2.5.

Nearby Weather Stations

Station Location Temp. Windchill Dew Point Humidity Wind Precip. Elev Updated Type
RAWS BEMIDJI MN, Bemidji, MN 49 °F 47 °F 32 °F 51% WSW  at  5 mph 0.00 in / hr 1376 ft 5:06 AM CDT MADIS
Bemidji State University - Dept of Geogr, Bemidji, MN 50.6 °F - 35 °F 55% South  at  0.0 mph 0.00 in / hr 1352 ft 5:44 AM CDT Rapid Fire
Grange Rd, Bemidji, MN 38.8 °F 39 °F 30 °F 69% SSW  at  0.0 mph 0.00 in / hr 1417 ft 5:44 AM CDT Rapid Fire
Turtle River TWP, Bemidji, MN 49.8 °F 49 °F 33 °F 52% South  at  3.1 mph 0.00 in / hr 1379 ft 5:43 AM CDT Rapid Fire
Long Lake, Bemidji, MN 44.2 °F 44 °F 34 °F 67% WNW  at  0.0 mph 0.00 in / hr 1367 ft 5:44 AM CDT Rapid Fire

Show More Stations Show Fewer Stations

What do you think?

We're not finished. Please let us know what you like, what you don't like, and what you are still missing.